createdAt,value
2016-05-14T00:00:35.139Z,1005.28
2016-05-14T00:01:32.080Z,1005.34
2016-05-14T00:02:32.020Z,1005.31
2016-05-14T00:03:31.976Z,1005.33
2016-05-14T00:04:31.917Z,1005.41
2016-05-14T00:05:32.137Z,1005.43
2016-05-14T00:06:31.828Z,1005.4
2016-05-14T00:07:31.768Z,1005.45
2016-05-14T00:08:31.724Z,1005.44
2016-05-14T00:09:31.679Z,1005.41
2016-05-14T00:10:31.635Z,1005.44
2016-05-14T00:11:31.576Z,1005.46
2016-05-14T00:12:31.532Z,1005.44
2016-05-14T00:13:31.472Z,1005.46
2016-05-14T00:14:31.427Z,1005.49
2016-05-14T00:15:31.384Z,1005.5
2016-05-14T00:16:31.339Z,1005.53
2016-05-14T00:17:34.296Z,1005.53
2016-05-14T00:18:34.267Z,1005.61
2016-05-14T00:19:31.191Z,1005.58
2016-05-14T00:20:31.131Z,1005.51
2016-05-14T00:21:31.087Z,1005.59
2016-05-14T00:22:31.028Z,1005.56
2016-05-14T00:23:30.984Z,1005.6
2016-05-14T00:24:30.939Z,1005.58
2016-05-14T00:25:30.878Z,1005.62
2016-05-14T00:26:30.834Z,1005.6
2016-05-14T00:27:30.791Z,1005.67
2016-05-14T00:28:30.747Z,1005.65
2016-05-14T00:29:30.686Z,1005.66
2016-05-14T00:30:30.642Z,1005.75
2016-05-14T00:31:30.598Z,1005.73
2016-05-14T00:32:30.539Z,1005.87
2016-05-14T00:33:30.635Z,1005.95
2016-05-14T00:34:30.465Z,1005.9
2016-05-14T00:35:30.438Z,1005.82
2016-05-14T00:36:33.580Z,1005.92
2016-05-14T00:37:30.349Z,1005.88
2016-05-14T00:38:30.274Z,1005.88
2016-05-14T00:39:30.198Z,1005.84
2016-05-14T00:40:30.138Z,1005.86
2016-05-14T00:41:33.094Z,1005.82
2016-05-14T00:42:30.049Z,1005.82
2016-05-14T00:43:29.990Z,1005.83
2016-05-14T00:44:29.961Z,1005.88
2016-05-14T00:45:32.902Z,1005.84
2016-05-14T00:46:32.858Z,1005.78
2016-05-14T00:47:29.798Z,1005.9
2016-05-14T00:48:29.801Z,1005.93
2016-05-14T00:49:29.693Z,1005.9
2016-05-14T00:50:32.649Z,1005.9
2016-05-14T00:51:29.605Z,1005.94
2016-05-14T00:52:29.545Z,1006.01
2016-05-14T00:53:29.501Z,1005.92
2016-05-14T00:54:29.442Z,1005.97
2016-05-14T00:55:29.398Z,1005.96
2016-05-14T00:56:29.337Z,1005.98
2016-05-14T00:57:32.308Z,1006.02
2016-05-14T00:58:29.233Z,1005.95
2016-05-14T00:59:29.205Z,1006.08
2016-05-14T01:00:29.161Z,1006.06
2016-05-14T01:01:29.101Z,1006.02
2016-05-14T01:02:29.244Z,1006.06
2016-05-14T01:03:28.997Z,1006.01
2016-05-14T01:04:28.936Z,1006.04
2016-05-14T01:05:28.893Z,1006.05
2016-05-14T01:06:28.849Z,1006.07
2016-05-14T01:07:28.789Z,1006.13
2016-05-14T01:08:28.745Z,1006.1
2016-05-14T01:09:28.700Z,1006.09
2016-05-14T01:10:28.641Z,1006.13
2016-05-14T01:11:28.596Z,1006.1
2016-05-14T01:12:31.552Z,1006.07
2016-05-14T01:13:28.493Z,1006.08
2016-05-14T01:14:28.448Z,1006.09
2016-05-14T01:15:28.389Z,1006.06
2016-05-14T01:16:28.344Z,1006.07
2016-05-14T01:17:28.300Z,1006.13
2016-05-14T01:18:28.241Z,1006.11
2016-05-14T01:19:28.196Z,1006.14
2016-05-14T01:20:31.151Z,1006.17
2016-05-14T01:21:28.092Z,1006.16
2016-05-14T01:22:28.032Z,1006.24
2016-05-14T01:23:27.988Z,1006.25
2016-05-14T01:24:27.944Z,1006.24
2016-05-14T01:25:30.900Z,1006.23
2016-05-14T01:26:27.840Z,1006.24
2016-05-14T01:27:27.795Z,1006.22
2016-05-14T01:28:27.736Z,1006.32
2016-05-14T01:29:27.692Z,1006.28
2016-05-14T01:30:27.632Z,1006.36
2016-05-14T01:31:27.589Z,1006.39
2016-05-14T01:32:27.544Z,1006.42
2016-05-14T01:33:27.609Z,1006.39
2016-05-14T01:34:27.440Z,1006.48
2016-05-14T01:35:30.395Z,1006.43
2016-05-14T01:36:27.538Z,1006.46
2016-05-14T01:37:27.291Z,1006.38
2016-05-14T01:38:27.232Z,1006.47
2016-05-14T01:39:27.188Z,1006.38
2016-05-14T01:40:27.143Z,1006.42
2016-05-14T01:41:27.084Z,1006.44
2016-05-14T01:42:27.038Z,1006.42
2016-05-14T01:43:27.182Z,1006.38
2016-05-14T01:44:26.935Z,1006.4
2016-05-14T01:45:30.094Z,1006.47
2016-05-14T01:46:29.832Z,1006.43
2016-05-14T01:47:26.802Z,1006.49
2016-05-14T01:48:26.727Z,1006.49
2016-05-14T01:49:26.682Z,1006.44
2016-05-14T01:50:26.640Z,1006.51
2016-05-14T01:51:26.579Z,1006.48
2016-05-14T01:52:26.738Z,1006.48
2016-05-14T01:53:26.475Z,1006.52
2016-05-14T01:54:26.431Z,1006.52
2016-05-14T01:55:29.403Z,1006.5
2016-05-14T01:56:26.530Z,1006.52
2016-05-14T01:57:26.280Z,1006.49
2016-05-14T01:58:26.237Z,1006.59
2016-05-14T01:59:26.176Z,1006.57
2016-05-14T02:00:26.132Z,1006.62
2016-05-14T02:01:29.090Z,1006.56
2016-05-14T02:02:26.028Z,1006.69
2016-05-14T02:03:26.000Z,1006.59
2016-05-14T02:04:26.330Z,1006.55
2016-05-14T02:05:25.880Z,1006.61
2016-05-14T02:06:25.819Z,1006.61
2016-05-14T02:07:25.760Z,1006.66
2016-05-14T02:08:25.716Z,1006.66
2016-05-14T02:09:25.672Z,1006.68
2016-05-14T02:10:28.630Z,1006.64
2016-05-14T02:11:28.586Z,1006.67
2016-05-14T02:12:25.524Z,1006.71
2016-05-14T02:13:25.463Z,1006.69
2016-05-14T02:14:25.419Z,1006.67
2016-05-14T02:15:25.375Z,1006.7
2016-05-14T02:16:25.316Z,1006.75
2016-05-14T02:17:25.272Z,1006.76
2016-05-14T02:18:25.258Z,1006.73
2016-05-14T02:19:25.371Z,1006.69
2016-05-14T02:20:28.126Z,1006.71
2016-05-14T02:21:25.063Z,1006.78
2016-05-14T02:22:25.019Z,1006.76
2016-05-14T02:23:24.975Z,1006.88
2016-05-14T02:24:27.965Z,1006.85
2016-05-14T02:25:27.874Z,1006.86
2016-05-14T02:26:24.812Z,1006.82
2016-05-14T02:27:24.767Z,1006.91
2016-05-14T02:28:24.722Z,1006.88
2016-05-14T02:29:27.682Z,1006.83
2016-05-14T02:30:24.620Z,1006.87
2016-05-14T02:31:24.559Z,1006.87
2016-05-14T02:32:24.515Z,1006.89
2016-05-14T02:33:33.473Z,1006.93
2016-05-14T02:34:24.411Z,1006.89
2016-05-14T02:35:24.367Z,1006.9
2016-05-14T02:36:24.306Z,1006.87
2016-05-14T02:37:24.278Z,1006.86
2016-05-14T02:38:27.281Z,1006.86
2016-05-14T02:39:24.206Z,1006.88
2016-05-14T02:40:24.115Z,1006.92
2016-05-14T02:41:24.055Z,1007.03
2016-05-14T02:42:24.010Z,1006.98
2016-05-14T02:43:26.997Z,1006.98
2016-05-14T02:44:23.891Z,1006.91
2016-05-14T02:45:23.847Z,1007.01
2016-05-14T02:46:23.865Z,1006.98
2016-05-14T02:47:23.743Z,1006.99
2016-05-14T02:48:23.699Z,1007.04
2016-05-14T02:49:23.638Z,1007.05
2016-05-14T02:50:23.594Z,1007
2016-05-14T02:51:26.550Z,1007.04
2016-05-14T02:52:26.506Z,1007.09
2016-05-14T02:53:23.447Z,1007.08
2016-05-14T02:54:23.386Z,1007.04
2016-05-14T02:55:23.342Z,1007.1
2016-05-14T02:56:23.282Z,1007.03
2016-05-14T02:57:23.238Z,1007.03
2016-05-14T02:58:23.179Z,1007.09
2016-05-14T02:59:23.134Z,1007.07
2016-05-14T03:00:23.090Z,1007.01
2016-05-14T03:01:26.030Z,1007.04
2016-05-14T03:02:22.970Z,1007.07
2016-05-14T03:03:23.067Z,1007.13
2016-05-14T03:04:22.882Z,1007.07
2016-05-14T03:05:22.838Z,1007.07
2016-05-14T03:06:22.778Z,1007.15
2016-05-14T03:07:25.734Z,1007.11
2016-05-14T03:08:22.674Z,1007.15
2016-05-14T03:09:22.630Z,1007.11
2016-05-14T03:10:22.570Z,1007.19
2016-05-14T03:11:25.541Z,1007.2
2016-05-14T03:12:22.466Z,1007.22
2016-05-14T03:13:22.422Z,1007.21
2016-05-14T03:14:22.363Z,1007.19
2016-05-14T03:15:22.318Z,1007.19
2016-05-14T03:16:22.258Z,1007.23
2016-05-14T03:17:22.214Z,1007.21
2016-05-14T03:18:22.154Z,1007.21
2016-05-14T03:19:22.110Z,1007.26
2016-05-14T03:20:25.065Z,1007.3
2016-05-14T03:21:22.006Z,1007.25
2016-05-14T03:22:21.962Z,1007.26
2016-05-14T03:23:24.918Z,1007.3
2016-05-14T03:24:24.874Z,1007.28
2016-05-14T03:25:21.798Z,1007.3
2016-05-14T03:26:21.754Z,1007.31
2016-05-14T03:27:21.693Z,1007.33
2016-05-14T03:28:21.650Z,1007.34
2016-05-14T03:29:24.606Z,1007.37
2016-05-14T03:30:21.748Z,1007.35
2016-05-14T03:31:21.502Z,1007.37
2016-05-14T03:32:21.442Z,1007.38
2016-05-14T03:33:21.398Z,1007.39
2016-05-14T03:34:21.353Z,1007.46
2016-05-14T03:35:21.294Z,1007.45
2016-05-14T03:36:21.250Z,1007.44
2016-05-14T03:37:21.189Z,1007.45
2016-05-14T03:38:21.333Z,1007.48
2016-05-14T03:39:21.086Z,1007.49
2016-05-14T03:40:21.042Z,1007.46
2016-05-14T03:41:21.185Z,1007.46
2016-05-14T03:42:20.938Z,1007.5
2016-05-14T03:43:20.878Z,1007.48
2016-05-14T03:44:20.849Z,1007.45
2016-05-14T03:45:20.789Z,1007.46
2016-05-14T03:46:20.729Z,1007.51
2016-05-14T03:47:20.685Z,1007.52
2016-05-14T03:48:20.625Z,1007.55
2016-05-14T03:49:20.581Z,1007.59
2016-05-14T03:50:20.521Z,1007.52
2016-05-14T03:51:20.477Z,1007.59
2016-05-14T03:52:20.418Z,1007.6
2016-05-14T03:53:20.373Z,1007.54
2016-05-14T03:54:20.313Z,1007.53
2016-05-14T03:55:20.269Z,1007.54
2016-05-14T03:56:20.225Z,1007.57
2016-05-14T03:57:20.166Z,1007.58
2016-05-14T03:58:20.105Z,1007.64
2016-05-14T03:59:23.076Z,1007.55
2016-05-14T04:00:23.033Z,1007.63
2016-05-14T04:01:19.957Z,1007.58
2016-05-14T04:02:19.913Z,1007.62
2016-05-14T04:03:19.869Z,1007.62
2016-05-14T04:04:19.809Z,1007.58
2016-05-14T04:05:22.765Z,1007.66
2016-05-14T04:06:19.705Z,1007.63
2016-05-14T04:07:19.661Z,1007.61
2016-05-14T04:08:22.617Z,1007.66
2016-05-14T04:09:19.557Z,1007.69
2016-05-14T04:10:19.514Z,1007.63
2016-05-14T04:11:19.453Z,1007.69
2016-05-14T04:12:19.409Z,1007.66
2016-05-14T04:13:19.552Z,1007.63
2016-05-14T04:14:19.289Z,1007.72
2016-05-14T04:15:19.244Z,1007.65
2016-05-14T04:16:19.185Z,1007.67
2016-05-14T04:17:22.157Z,1007.67
2016-05-14T04:18:19.081Z,1007.73
2016-05-14T04:19:19.037Z,1007.7
2016-05-14T04:20:21.999Z,1007.68
2016-05-14T04:21:21.998Z,1007.74
2016-05-14T04:22:18.965Z,1007.72
2016-05-14T04:23:18.964Z,1007.76
2016-05-14T04:24:18.946Z,1007.71
2016-05-14T04:25:21.941Z,1007.77
2016-05-14T04:26:21.914Z,1007.77
2016-05-14T04:27:18.868Z,1007.8
2016-05-14T04:28:18.825Z,1007.77
2016-05-14T04:29:18.796Z,1007.82
2016-05-14T04:30:18.749Z,1007.95
2016-05-14T04:31:18.727Z,1007.85
2016-05-14T04:32:18.876Z,1007.93
2016-05-14T04:33:18.619Z,1007.89
2016-05-14T04:34:18.564Z,1007.94
2016-05-14T04:35:18.526Z,1008.01
2016-05-14T04:36:18.484Z,1007.98
2016-05-14T04:37:18.442Z,1007.97
2016-05-14T04:38:18.383Z,1007.95
2016-05-14T04:39:18.341Z,1008.02
2016-05-14T04:40:18.283Z,1008.02
2016-05-14T04:41:18.240Z,1008.07
2016-05-14T04:42:18.181Z,1008.04
2016-05-14T04:43:18.138Z,1008.09
2016-05-14T04:44:18.078Z,1008.06
2016-05-14T04:45:18.035Z,1008.07
2016-05-14T04:46:17.975Z,1008.17
2016-05-14T04:47:17.932Z,1008.14
2016-05-14T04:48:17.887Z,1008.18
2016-05-14T04:49:17.829Z,1008.15
2016-05-14T04:50:17.769Z,1008.17
2016-05-14T04:51:17.724Z,1008.2
2016-05-14T04:52:17.665Z,1008.22
2016-05-14T04:53:17.620Z,1008.22
2016-05-14T04:54:17.560Z,1008.16
2016-05-14T04:55:20.532Z,1008.17
2016-05-14T04:56:17.457Z,1008.22
2016-05-14T04:57:17.413Z,1008.19
2016-05-14T04:58:17.353Z,1008.22
2016-05-14T04:59:20.309Z,1008.29
2016-05-14T05:00:17.248Z,1008.2
2016-05-14T05:01:17.204Z,1008.28
2016-05-14T05:02:17.145Z,1008.25
2016-05-14T05:03:20.116Z,1008.27
2016-05-14T05:04:20.057Z,1008.27
2016-05-14T05:05:16.997Z,1008.32
2016-05-14T05:06:16.953Z,1008.34
2016-05-14T05:07:16.893Z,1008.33
2016-05-14T05:08:16.848Z,1008.38
2016-05-14T05:09:16.789Z,1008.37
2016-05-14T05:10:16.947Z,1008.31
2016-05-14T05:11:16.684Z,1008.37
2016-05-14T05:12:19.641Z,1008.32
2016-05-14T05:13:16.597Z,1008.32
2016-05-14T05:14:16.537Z,1008.34
2016-05-14T05:15:16.477Z,1008.36
2016-05-14T05:16:16.433Z,1008.36
2016-05-14T05:17:16.388Z,1008.44
2016-05-14T05:18:16.328Z,1008.36
2016-05-14T05:19:16.284Z,1008.37
2016-05-14T05:20:16.225Z,1008.42
2016-05-14T05:21:16.165Z,1008.39
2016-05-14T05:22:16.121Z,1008.46
2016-05-14T05:23:16.061Z,1008.38
2016-05-14T05:24:16.016Z,1008.38
2016-05-14T05:25:15.972Z,1008.36
2016-05-14T05:26:15.912Z,1008.39
2016-05-14T05:27:15.868Z,1008.32
2016-05-14T05:28:15.809Z,1008.32
2016-05-14T05:29:15.765Z,1008.3
2016-05-14T05:30:15.720Z,1008.32
2016-05-14T05:31:15.676Z,1008.31
2016-05-14T05:32:15.616Z,1008.35
2016-05-14T05:33:15.556Z,1008.39
2016-05-14T05:34:15.496Z,1008.39
2016-05-14T05:35:15.453Z,1008.35
2016-05-14T05:36:15.408Z,1008.37
2016-05-14T05:37:15.348Z,1008.38
2016-05-14T05:38:18.304Z,1008.4
2016-05-14T05:39:15.244Z,1008.44
2016-05-14T05:40:15.200Z,1008.45
2016-05-14T05:41:15.155Z,1008.42
2016-05-14T05:42:18.314Z,1008.38
2016-05-14T05:43:15.068Z,1008.42
2016-05-14T05:44:14.992Z,1008.43
2016-05-14T05:45:14.948Z,1008.38
2016-05-14T05:46:14.903Z,1008.41
2016-05-14T05:47:14.828Z,1008.44
2016-05-14T05:48:14.878Z,1008.43
2016-05-14T05:49:14.740Z,1008.39
2016-05-14T05:50:14.680Z,1008.4
2016-05-14T05:51:14.635Z,1008.41
2016-05-14T05:52:17.592Z,1008.38
2016-05-14T05:53:14.533Z,1008.39
2016-05-14T05:54:14.488Z,1008.45
2016-05-14T05:55:14.428Z,1008.48
2016-05-14T05:56:14.368Z,1008.45
2016-05-14T05:57:14.324Z,1008.44
2016-05-14T05:58:14.280Z,1008.42
2016-05-14T05:59:14.220Z,1008.45
2016-05-14T06:00:17.176Z,1008.45
2016-05-14T06:01:14.131Z,1008.57
2016-05-14T06:02:14.072Z,1008.48
2016-05-14T06:03:14.012Z,1008.43
2016-05-14T06:04:13.968Z,1008.49
2016-05-14T06:05:13.924Z,1008.49
2016-05-14T06:06:16.879Z,1008.55
2016-05-14T06:07:13.820Z,1008.48
2016-05-14T06:08:13.760Z,1008.49
2016-05-14T06:09:13.715Z,1008.53
2016-05-14T06:10:13.672Z,1008.46
2016-05-14T06:11:13.627Z,1008.47
2016-05-14T06:12:13.567Z,1008.52
2016-05-14T06:13:13.508Z,1008.51
2016-05-14T06:14:13.479Z,1008.51
2016-05-14T06:15:16.420Z,1008.47
2016-05-14T06:16:13.359Z,1008.54
2016-05-14T06:17:13.316Z,1008.53
2016-05-14T06:18:13.271Z,1008.5
2016-05-14T06:19:13.211Z,1008.49
2016-05-14T06:20:16.166Z,1008.55
2016-05-14T06:21:13.107Z,1008.54
2016-05-14T06:22:13.313Z,1008.62
2016-05-14T06:23:16.003Z,1008.57
2016-05-14T06:24:12.960Z,1008.64
2016-05-14T06:25:12.899Z,1008.6
2016-05-14T06:26:12.855Z,1008.65
2016-05-14T06:27:12.795Z,1008.68
2016-05-14T06:28:15.766Z,1008.63
2016-05-14T06:29:15.723Z,1008.66
2016-05-14T06:30:12.646Z,1008.67
2016-05-14T06:31:12.587Z,1008.63
2016-05-14T06:32:15.559Z,1008.64
2016-05-14T06:33:21.499Z,1008.61
2016-05-14T06:34:12.440Z,1008.64
2016-05-14T06:35:12.395Z,1008.64
2016-05-14T06:36:12.554Z,1008.68
2016-05-14T06:37:12.290Z,1008.64
2016-05-14T06:38:12.247Z,1008.63
2016-05-14T06:39:12.187Z,1008.67
2016-05-14T06:40:12.142Z,1008.65
2016-05-14T06:41:12.083Z,1008.55
2016-05-14T06:42:15.053Z,1008.63
2016-05-14T06:43:11.978Z,1008.55
2016-05-14T06:44:11.935Z,1008.73
2016-05-14T06:45:11.891Z,1008.66
2016-05-14T06:46:11.831Z,1008.71
2016-05-14T06:47:11.786Z,1008.7
2016-05-14T06:48:12.039Z,1008.75
2016-05-14T06:49:11.683Z,1008.69
2016-05-14T06:50:11.622Z,1008.72
2016-05-14T06:51:11.578Z,1008.81
2016-05-14T06:52:11.534Z,1008.79
2016-05-14T06:53:11.475Z,1008.79
2016-05-14T06:54:11.431Z,1008.82
2016-05-14T06:55:11.386Z,1008.84
2016-05-14T06:56:11.327Z,1008.85
2016-05-14T06:57:11.282Z,1008.92
2016-05-14T06:58:11.222Z,1008.93
2016-05-14T06:59:11.179Z,1008.88
2016-05-14T07:00:11.118Z,1008.95
2016-05-14T07:01:11.074Z,1008.9
2016-05-14T07:02:11.029Z,1008.85
2016-05-14T07:03:10.970Z,1008.95
2016-05-14T07:04:10.926Z,1008.91
2016-05-14T07:05:10.881Z,1008.97
2016-05-14T07:06:13.838Z,1009
2016-05-14T07:07:10.778Z,1008.92
2016-05-14T07:08:10.734Z,1008.99
2016-05-14T07:09:10.674Z,1009.02
2016-05-14T07:10:10.614Z,1008.96
2016-05-14T07:11:10.570Z,1008.99
2016-05-14T07:12:10.525Z,1008.89
2016-05-14T07:13:10.669Z,1008.92
2016-05-14T07:14:10.422Z,1008.91
2016-05-14T07:15:10.378Z,1008.86
2016-05-14T07:16:10.318Z,1008.92
2016-05-14T07:17:10.273Z,1008.92
2016-05-14T07:18:10.230Z,1008.96
2016-05-14T07:19:10.170Z,1008.97
2016-05-14T07:20:10.110Z,1008.97
2016-05-14T07:21:13.066Z,1008.95
2016-05-14T07:22:10.021Z,1009.02
2016-05-14T07:23:09.961Z,1008.99
2016-05-14T07:24:09.917Z,1009.04
2016-05-14T07:25:09.858Z,1009
2016-05-14T07:26:09.814Z,1009.06
2016-05-14T07:27:12.768Z,1009.09
2016-05-14T07:28:09.725Z,1009.03
2016-05-14T07:29:09.666Z,1009.02
2016-05-14T07:30:12.621Z,1009.01
2016-05-14T07:31:09.561Z,1009.08
2016-05-14T07:32:09.517Z,1009.03
2016-05-14T07:33:09.457Z,1009.09
2016-05-14T07:34:09.929Z,1009.12
2016-05-14T07:35:09.556Z,1009.16
2016-05-14T07:36:09.309Z,1009.13
2016-05-14T07:37:09.265Z,1009.26
2016-05-14T07:38:09.221Z,1009.15
2016-05-14T07:39:09.162Z,1009.16
2016-05-14T07:40:12.117Z,1009.09
2016-05-14T07:41:09.057Z,1009.05
2016-05-14T07:42:08.997Z,1009.05
2016-05-14T07:43:08.952Z,1009.14
2016-05-14T07:44:08.909Z,1009.1
2016-05-14T07:45:11.864Z,1009.1
2016-05-14T07:46:08.805Z,1009.13
2016-05-14T07:47:08.776Z,1009.17
2016-05-14T07:48:08.701Z,1009.17
2016-05-14T07:49:08.657Z,1009.15
2016-05-14T07:50:08.612Z,1009.14
2016-05-14T07:51:08.553Z,1009.12
2016-05-14T07:52:08.508Z,1009.11
2016-05-14T07:53:08.464Z,1009.13
2016-05-14T07:54:08.405Z,1009.2
2016-05-14T07:55:11.360Z,1009.13
2016-05-14T07:56:11.316Z,1009.15
2016-05-14T07:57:08.256Z,1009.1
2016-05-14T07:58:08.212Z,1009.14
2016-05-14T07:59:08.152Z,1009.12
2016-05-14T08:00:08.108Z,1009.22
2016-05-14T08:01:08.049Z,1009.13
2016-05-14T08:02:08.004Z,1009.12
2016-05-14T08:03:07.944Z,1009.18
2016-05-14T08:04:07.916Z,1009.05
2016-05-14T08:05:07.856Z,1009.13
2016-05-14T08:06:07.812Z,1009.1
2016-05-14T08:07:07.751Z,1009.11
2016-05-14T08:08:07.707Z,1009.03
2016-05-14T08:09:07.663Z,1009.07
2016-05-14T08:10:07.604Z,1009.09
2016-05-14T08:11:10.560Z,1009.09
2016-05-14T08:12:07.500Z,1009.15
2016-05-14T08:13:07.455Z,1009.14
2016-05-14T08:14:07.395Z,1009.12
2016-05-14T08:15:07.351Z,1009.1
2016-05-14T08:16:07.495Z,1009.13
2016-05-14T08:17:07.247Z,1009.14
2016-05-14T08:18:07.203Z,1009.12
2016-05-14T08:19:07.269Z,1009.11
2016-05-14T08:20:07.114Z,1009.14
2016-05-14T08:21:07.055Z,1009.2
2016-05-14T08:22:10.027Z,1009.14
2016-05-14T08:23:06.951Z,1009.14
2016-05-14T08:24:06.907Z,1009.21
2016-05-14T08:25:06.847Z,1009.2
2016-05-14T08:26:09.803Z,1009.14
2016-05-14T08:27:06.946Z,1009.14
2016-05-14T08:28:06.746Z,1009.13
2016-05-14T08:29:06.654Z,1009.1
2016-05-14T08:30:06.594Z,1009.21
2016-05-14T08:31:06.551Z,1009.22
2016-05-14T08:32:06.507Z,1009.09
2016-05-14T08:33:06.447Z,1009.21
2016-05-14T08:34:06.747Z,1009.17
2016-05-14T08:35:06.358Z,1009.16
2016-05-14T08:36:06.315Z,1009.16
2016-05-14T08:37:06.254Z,1009.16
2016-05-14T08:38:06.195Z,1009.23
2016-05-14T08:39:06.151Z,1009.18
2016-05-14T08:40:06.121Z,1009.32
2016-05-14T08:41:06.062Z,1009.22
2016-05-14T08:42:06.002Z,1009.21
2016-05-14T08:43:05.942Z,1009.22
2016-05-14T08:44:05.898Z,1009.23
2016-05-14T08:45:05.854Z,1009.24
2016-05-14T08:46:05.810Z,1009.26
2016-05-14T08:47:08.969Z,1009.29
2016-05-14T08:48:05.706Z,1009.26
2016-05-14T08:49:06.162Z,1009.31
2016-05-14T08:50:05.602Z,1009.4
2016-05-14T08:51:05.558Z,1009.33
2016-05-14T08:52:05.513Z,1009.47
2016-05-14T08:53:05.453Z,1009.33
2016-05-14T08:54:05.409Z,1009.42
2016-05-14T08:55:05.350Z,1009.48
2016-05-14T08:56:05.305Z,1009.49
2016-05-14T08:57:08.261Z,1009.46
2016-05-14T08:58:05.217Z,1009.47
2016-05-14T08:59:05.158Z,1009.44
2016-05-14T09:00:05.097Z,1009.46
2016-05-14T09:01:05.053Z,1009.52
2016-05-14T09:02:08.009Z,1009.53
2016-05-14T09:03:07.949Z,1009.58
2016-05-14T09:04:05.155Z,1009.58
2016-05-14T09:05:04.860Z,1009.59
2016-05-14T09:06:04.801Z,1009.58
2016-05-14T09:07:04.756Z,1009.64
2016-05-14T09:08:04.697Z,1009.68
2016-05-14T09:09:04.654Z,1009.72
2016-05-14T09:10:04.593Z,1009.65
2016-05-14T09:11:04.549Z,1009.7
2016-05-14T09:12:04.504Z,1009.75
2016-05-14T09:13:04.445Z,1009.76
2016-05-14T09:14:04.401Z,1009.8
2016-05-14T09:15:04.387Z,1009.76
2016-05-14T09:16:07.312Z,1009.77
2016-05-14T09:17:07.252Z,1009.86
2016-05-14T09:18:04.192Z,1009.84
2016-05-14T09:19:04.212Z,1009.86
2016-05-14T09:20:07.103Z,1010.01
2016-05-14T09:21:13.061Z,1009.89
2016-05-14T09:22:07.000Z,1009.9
2016-05-14T09:23:03.941Z,1009.8
2016-05-14T09:24:03.897Z,1009.8
2016-05-14T09:25:03.836Z,1009.94
2016-05-14T09:26:06.808Z,1009.8
2016-05-14T09:27:03.747Z,1009.83
2016-05-14T09:28:03.688Z,1009.88
2016-05-14T09:29:03.644Z,1009.91
2016-05-14T09:30:03.584Z,1009.88
2016-05-14T09:31:03.541Z,1009.82
2016-05-14T09:32:03.480Z,1009.91
2016-05-14T09:33:03.436Z,1009.86
2016-05-14T09:34:03.392Z,1009.94
2016-05-14T09:35:06.348Z,1009.95
2016-05-14T09:36:06.319Z,1009.93
2016-05-14T09:37:03.228Z,1009.91
2016-05-14T09:38:03.184Z,1009.96
2016-05-14T09:39:03.140Z,1009.91
2016-05-14T09:40:03.079Z,1009.92
2016-05-14T09:41:06.035Z,1009.89
2016-05-14T09:42:02.975Z,1009.86
2016-05-14T09:43:02.931Z,1009.79
2016-05-14T09:44:02.873Z,1009.82
2016-05-14T09:45:02.828Z,1009.73
2016-05-14T09:46:02.784Z,1009.78
2016-05-14T09:47:02.723Z,1009.81
2016-05-14T09:48:02.679Z,1009.85
2016-05-14T09:49:05.636Z,1009.83
2016-05-14T09:50:02.575Z,1009.84
2016-05-14T09:51:02.531Z,1009.77
2016-05-14T09:52:02.675Z,1009.76
2016-05-14T09:53:02.427Z,1009.82
2016-05-14T09:54:02.367Z,1009.79
2016-05-14T09:55:05.542Z,1009.74
2016-05-14T09:56:05.295Z,1009.77
2016-05-14T09:57:02.219Z,1009.74
2016-05-14T09:58:02.191Z,1009.79
2016-05-14T09:59:05.131Z,1009.78
2016-05-14T10:00:02.086Z,1009.78
2016-05-14T10:01:05.043Z,1009.83
2016-05-14T10:02:01.983Z,1009.86
2016-05-14T10:03:01.923Z,1009.88
2016-05-14T10:04:02.410Z,1009.83
2016-05-14T10:05:01.835Z,1009.84
2016-05-14T10:06:01.774Z,1009.86
2016-05-14T10:07:04.730Z,1009.88
2016-05-14T10:08:01.671Z,1009.89
2016-05-14T10:09:01.627Z,1009.93
2016-05-14T10:10:04.583Z,1009.95
2016-05-14T10:11:01.537Z,1009.91
2016-05-14T10:12:01.479Z,1009.87
2016-05-14T10:13:01.435Z,1009.91
2016-05-14T10:14:01.374Z,1009.94
2016-05-14T10:15:01.331Z,1009.88
2016-05-14T10:16:01.286Z,1009.9
2016-05-14T10:17:01.226Z,1009.89
2016-05-14T10:18:01.182Z,1009.97
2016-05-14T10:19:01.137Z,1009.97
2016-05-14T10:20:01.125Z,1009.94
2016-05-14T10:21:01.064Z,1010.06
2016-05-14T10:22:01.020Z,1009.95
2016-05-14T10:23:00.978Z,1009.91
2016-05-14T10:24:01.120Z,1009.83
2016-05-14T10:25:00.842Z,1009.85
2016-05-14T10:26:00.797Z,1009.86
2016-05-14T10:27:00.769Z,1009.89
2016-05-14T10:28:00.694Z,1009.88
2016-05-14T10:29:00.664Z,1009.83
2016-05-14T10:30:03.621Z,1009.89
2016-05-14T10:31:00.577Z,1009.85
2016-05-14T10:32:03.501Z,1009.83
2016-05-14T10:33:00.472Z,1009.9
2016-05-14T10:34:00.460Z,1009.82
2016-05-14T10:35:00.337Z,1009.9
2016-05-14T10:36:03.340Z,1009.79
2016-05-14T10:37:00.280Z,1009.89
2016-05-14T10:38:00.236Z,1009.78
2016-05-14T10:39:00.177Z,1009.86
2016-05-14T10:40:00.085Z,1009.9
2016-05-14T10:41:00.041Z,1009.89
2016-05-14T10:42:02.997Z,1009.82
2016-05-14T10:43:02.937Z,1009.81
2016-05-14T10:44:02.909Z,1009.82
2016-05-14T10:44:59.848Z,1009.81
2016-05-14T10:45:59.789Z,1009.81
2016-05-14T10:46:59.745Z,1009.89
2016-05-14T10:47:59.700Z,1009.95
2016-05-14T10:48:59.656Z,1009.87
2016-05-14T10:50:02.595Z,1009.89
2016-05-14T10:50:59.552Z,1009.96
2016-05-14T10:51:59.493Z,1009.89
2016-05-14T10:52:59.464Z,1009.91
2016-05-14T10:53:59.403Z,1009.87
2016-05-14T10:54:59.344Z,1009.89
2016-05-14T10:55:59.300Z,1009.96
2016-05-14T10:56:59.256Z,1010.02
2016-05-14T10:57:59.211Z,1009.97
2016-05-14T10:58:59.152Z,1009.98
2016-05-14T10:59:59.108Z,1009.95
2016-05-14T11:01:02.064Z,1010.02
2016-05-14T11:01:59.003Z,1010.09
2016-05-14T11:02:58.960Z,1009.99
2016-05-14T11:03:59.133Z,1010.06
2016-05-14T11:05:01.871Z,1010.12
2016-05-14T11:05:58.811Z,1010.1
2016-05-14T11:06:58.970Z,1009.98
2016-05-14T11:07:58.708Z,1009.99
2016-05-14T11:08:58.865Z,1010.05
2016-05-14T11:09:58.618Z,1010.06
2016-05-14T11:10:58.575Z,1010.07
2016-05-14T11:12:01.530Z,1009.97
2016-05-14T11:12:58.533Z,1009.96
2016-05-14T11:13:58.410Z,1010.03
2016-05-14T11:14:58.367Z,1010.02
2016-05-14T11:15:58.323Z,1010.07
2016-05-14T11:16:58.263Z,1010.13
2016-05-14T11:17:58.203Z,1010.16
2016-05-14T11:19:01.174Z,1010.16
2016-05-14T11:19:58.131Z,1010.13
2016-05-14T11:20:58.070Z,1010.17
2016-05-14T11:22:01.026Z,1010.15
2016-05-14T11:22:57.966Z,1010.08
2016-05-14T11:23:57.922Z,1010.17
2016-05-14T11:24:57.878Z,1010.14
2016-05-14T11:25:57.818Z,1010.23
2016-05-14T11:26:57.775Z,1010.17
2016-05-14T11:27:57.730Z,1010.1
2016-05-14T11:28:57.872Z,1010.09
2016-05-14T11:29:57.625Z,1010.13
2016-05-14T11:30:57.566Z,1010.16
2016-05-14T11:31:57.725Z,1010.07
2016-05-14T11:32:57.477Z,1010.04
2016-05-14T11:34:01.089Z,1010.1
2016-05-14T11:35:00.389Z,1010.16
2016-05-14T11:35:57.345Z,1010.1
2016-05-14T11:36:57.285Z,1010.05
2016-05-14T11:37:57.225Z,1010.14
2016-05-14T11:38:57.182Z,1010.06
2016-05-14T11:39:57.137Z,1010.08
2016-05-14T11:41:00.093Z,1010.44
2016-05-14T11:41:57.032Z,1010.13
2016-05-14T11:43:00.020Z,1010.24
2016-05-14T11:43:57.023Z,1010.25
2016-05-14T11:44:56.994Z,1010.32
2016-05-14T11:45:56.840Z,1010.34
2016-05-14T11:46:56.953Z,1010.27
2016-05-14T11:47:56.956Z,1010.21
2016-05-14T11:48:56.787Z,1010.24
2016-05-14T11:49:56.648Z,1010.28
2016-05-14T11:50:56.589Z,1010.21
2016-05-14T11:51:56.998Z,1010.16
2016-05-14T11:52:56.501Z,1010.22
2016-05-14T11:53:59.456Z,1010.18
2016-05-14T11:54:56.396Z,1010.18
2016-05-14T11:55:56.352Z,1010.25
2016-05-14T11:56:59.308Z,1010.26
2016-05-14T11:57:56.248Z,1010.28
2016-05-14T11:58:56.203Z,1010.28
2016-05-14T11:59:56.144Z,1010.3
2016-05-14T12:00:56.099Z,1010.23
2016-05-14T12:01:56.055Z,1010.3
2016-05-14T12:02:56.199Z,1010.23
2016-05-14T12:03:55.952Z,1010.28
2016-05-14T12:04:55.922Z,1010.21
2016-05-14T12:05:55.847Z,1010.26
2016-05-14T12:06:55.803Z,1010.26